createdAt,value
2019-04-20T00:00:41.689Z,42.30
2019-04-20T00:03:07.684Z,42.00
2019-04-20T00:05:37.170Z,41.60
2019-04-20T00:08:09.171Z,41.70
2019-04-20T00:10:47.345Z,41.70
2019-04-20T00:13:19.457Z,41.80
2019-04-20T00:15:36.893Z,41.90
2019-04-20T00:18:08.082Z,42.00
2019-04-20T00:20:39.085Z,42.60
2019-04-20T00:23:14.577Z,42.30
2019-04-20T00:26:07.729Z,42.70
2019-04-20T00:28:46.037Z,42.70
2019-04-20T00:31:12.689Z,42.80
2019-04-20T00:33:43.350Z,42.90
2019-04-20T00:35:59.017Z,43.20
2019-04-20T00:38:35.207Z,43.30
2019-04-20T00:41:02.680Z,43.50
2019-04-20T00:43:32.316Z,44.10
2019-04-20T00:46:01.160Z,44.90
2019-04-20T00:48:37.429Z,44.70
2019-04-20T00:51:21.450Z,44.80
2019-04-20T00:53:36.310Z,45.90
2019-04-20T00:55:59.330Z,45.20
2019-04-20T00:58:35.239Z,45.30
2019-04-20T01:01:19.923Z,45.50
2019-04-20T01:03:43.232Z,45.80
2019-04-20T01:06:28.556Z,46.00
2019-04-20T01:08:40.124Z,46.20
2019-04-20T01:11:10.203Z,46.90
2019-04-20T01:13:46.578Z,46.90
2019-04-20T01:16:21.828Z,47.70
2019-04-20T01:18:39.176Z,48.10
2019-04-20T01:21:14.057Z,48.10
2019-04-20T01:23:42.931Z,47.90
2019-04-20T01:26:13.017Z,47.80
2019-04-20T01:28:51.136Z,48.40
2019-04-20T01:31:18.804Z,47.90
2019-04-20T01:33:51.896Z,47.90
2019-04-20T01:36:33.416Z,49.10
2019-04-20T01:38:51.377Z,48.70
2019-04-20T01:41:09.685Z,48.40
2019-04-20T01:43:39.412Z,48.20
2019-04-20T01:46:15.093Z,47.70
2019-04-20T01:48:40.259Z,46.80
2019-04-20T01:51:14.090Z,46.60
2019-04-20T01:54:02.410Z,47.50
2019-04-20T01:56:31.186Z,48.60
2019-04-20T01:59:04.608Z,49.30
2019-04-20T02:01:37.360Z,50.50
2019-04-20T02:04:17.195Z,50.10
2019-04-20T02:06:48.127Z,49.70
2019-04-20T02:09:16.683Z,50.20
2019-04-20T02:11:46.501Z,50.00
2019-04-20T02:14:14.276Z,49.60
2019-04-20T02:16:48.088Z,50.10
2019-04-20T02:19:26.526Z,50.10
2019-04-20T02:21:59.107Z,49.30
2019-04-20T02:24:14.859Z,48.30
2019-04-20T02:26:45.101Z,48.90
2019-04-20T02:29:36.910Z,48.40
2019-04-20T02:35:11.588Z,49.40
2019-04-20T02:37:59.821Z,49.30
2019-04-20T02:40:09.220Z,48.90
2019-04-20T02:42:46.393Z,48.70
2019-04-20T02:45:17.441Z,48.80
2019-04-20T02:47:40.405Z,48.40
2019-04-20T02:50:14.156Z,48.10
2019-04-20T02:55:15.168Z,49.20
2019-04-20T02:57:49.330Z,50.10
2019-04-20T03:00:18.269Z,50.10
2019-04-20T03:02:23.584Z,51.30
2019-04-20T03:04:47.822Z,50.60
2019-04-20T03:07:25.534Z,50.80
2019-04-20T03:09:59.327Z,51.20
2019-04-20T03:12:35.161Z,51.20
2019-04-20T03:14:55.247Z,51.40
2019-04-20T03:17:32.698Z,52.00
2019-04-20T03:19:53.655Z,52.40
2019-04-20T03:22:39.560Z,52.60
2019-04-20T03:25:06.884Z,52.60
2019-04-20T03:27:33.037Z,52.70
2019-04-20T03:30:22.549Z,52.10
2019-04-20T03:33:14.084Z,52.70
2019-04-20T03:37:52.642Z,53.50
2019-04-20T03:40:10.071Z,53.70
2019-04-20T03:42:24.448Z,53.40
2019-04-20T03:45:01.789Z,53.50
2019-04-20T03:47:33.775Z,53.40
2019-04-20T03:50:18.521Z,53.20
2019-04-20T03:53:08.625Z,53.00
2019-04-20T03:55:36.323Z,52.90
2019-04-20T03:58:14.244Z,53.80
2019-04-20T04:00:59.494Z,55.00
2019-04-20T04:03:45.131Z,55.20
2019-04-20T04:06:10.537Z,55.50
2019-04-20T04:08:35.397Z,55.80
2019-04-20T04:11:17.509Z,56.60
2019-04-20T04:13:27.412Z,56.60
2019-04-20T04:16:02.638Z,57.20
2019-04-20T04:18:34.689Z,57.50
2019-04-20T04:21:03.019Z,58.20
2019-04-20T04:23:47.090Z,58.30
2019-04-20T04:26:18.667Z,58.80
2019-04-20T04:28:43.809Z,58.60
2019-04-20T04:31:21.494Z,57.70
2019-04-20T04:36:15.484Z,58.40
2019-04-20T04:38:48.741Z,58.60
2019-04-20T04:41:25.650Z,59.50
2019-04-20T04:43:49.507Z,59.10
2019-04-20T04:45:59.943Z,59.70
2019-04-20T04:48:35.105Z,59.30
2019-04-20T04:51:03.402Z,59.40
2019-04-20T04:53:41.698Z,59.60
2019-04-20T04:56:05.830Z,59.50
2019-04-20T04:58:29.817Z,59.30
2019-04-20T05:01:05.569Z,58.80
2019-04-20T05:03:44.767Z,58.30
2019-04-20T05:06:19.706Z,58.10
2019-04-20T05:08:38.706Z,57.60
2019-04-20T05:11:02.607Z,57.60
2019-04-20T05:13:38.087Z,57.70
2019-04-20T05:16:15.823Z,57.50
2019-04-20T05:18:59.061Z,57.40
2019-04-20T05:21:20.802Z,56.90
2019-04-20T05:23:53.344Z,56.50
2019-04-20T05:26:29.900Z,56.50
2019-04-20T05:28:52.718Z,56.30
2019-04-20T05:31:13.905Z,56.40
2019-04-20T05:34:11.476Z,56.30
2019-04-20T05:36:35.760Z,56.40
2019-04-20T05:39:10.037Z,55.60
2019-04-20T05:41:33.241Z,55.80
2019-04-20T05:44:04.636Z,55.20
2019-04-20T05:46:37.065Z,55.10
2019-04-20T05:49:11.730Z,54.90
2019-04-20T05:51:40.908Z,55.00
2019-04-20T05:54:07.245Z,54.70
2019-04-20T05:56:39.958Z,54.30
2019-04-20T05:59:04.805Z,53.90
2019-04-20T06:01:49.918Z,53.90
2019-04-20T06:04:10.219Z,53.90
2019-04-20T06:06:45.164Z,53.60
2019-04-20T06:11:50.103Z,53.20
2019-04-20T06:14:08.079Z,52.80
2019-04-20T06:17:00.110Z,52.40
2019-04-20T06:21:57.906Z,51.50
2019-04-20T06:24:38.011Z,50.80
2019-04-20T06:27:17.945Z,50.80
2019-04-20T06:29:26.342Z,51.30
2019-04-20T06:32:07.034Z,51.00
2019-04-20T06:37:05.772Z,50.20
2019-04-20T06:49:35.403Z,49.70
2019-04-20T06:52:20.343Z,49.50
2019-04-20T06:54:57.806Z,49.70
2019-04-20T06:57:33.110Z,49.30
2019-04-20T07:00:00.408Z,48.80
2019-04-20T07:02:38.634Z,49.20
2019-04-20T07:04:59.712Z,48.80
2019-04-20T07:07:31.580Z,48.30
2019-04-20T07:10:08.597Z,48.30
2019-04-20T07:12:31.155Z,48.20
2019-04-20T07:14:55.527Z,48.20
2019-04-20T07:20:05.996Z,47.40
2019-04-20T07:22:46.639Z,46.80
2019-04-20T07:25:14.409Z,46.70
2019-04-20T07:27:52.071Z,47.80
2019-04-20T07:30:29.949Z,47.00
2019-04-20T07:32:54.467Z,46.90
2019-04-20T07:35:22.075Z,46.50
2019-04-20T07:40:20.116Z,47.10
2019-04-20T07:45:26.159Z,46.90
2019-04-20T07:50:18.643Z,45.70
2019-04-20T07:52:43.286Z,45.30
2019-04-20T07:57:47.282Z,45.40
2019-04-20T08:00:27.549Z,45.70
2019-04-20T08:03:20.429Z,46.00
2019-04-20T08:05:36.468Z,44.90
2019-04-20T08:08:14.842Z,45.20
2019-04-20T08:10:47.511Z,44.70
2019-04-20T08:13:25.704Z,44.70
2019-04-20T08:15:51.225Z,45.20
2019-04-20T08:18:19.429Z,45.90
2019-04-20T08:20:47.546Z,45.50
2019-04-20T08:23:18.168Z,45.50
2019-04-20T08:25:39.577Z,45.60
2019-04-20T08:28:18.488Z,45.40
2019-04-20T08:30:57.067Z,46.00
2019-04-20T08:33:33.544Z,44.10
2019-04-20T08:36:09.180Z,44.90
2019-04-20T08:38:58.335Z,45.20
2019-04-20T08:41:00.484Z,44.30
2019-04-20T08:43:42.077Z,45.50
2019-04-20T08:46:05.584Z,43.30
2019-04-20T08:48:33.259Z,45.60
2019-04-20T08:51:03.464Z,45.30
2019-04-20T08:53:36.855Z,45.20
2019-04-20T08:55:55.327Z,45.20
2019-04-20T08:58:15.915Z,46.20
2019-04-20T09:00:50.146Z,44.60
2019-04-20T09:03:22.871Z,45.60
2019-04-20T09:05:55.309Z,45.00
2019-04-20T09:08:23.501Z,44.20
2019-04-20T09:11:07.038Z,42.90
2019-04-20T09:13:26.923Z,45.30
2019-04-20T09:15:47.095Z,44.80
2019-04-20T09:18:27.197Z,46.00
2019-04-20T09:20:58.412Z,45.90
2019-04-20T09:23:31.570Z,43.40
2019-04-20T09:26:10.138Z,43.60
2019-04-20T09:28:30.513Z,44.30
2019-04-20T09:31:12.836Z,45.90
2019-04-20T09:33:48.683Z,46.10
2019-04-20T09:36:15.290Z,44.40
2019-04-20T09:39:00.034Z,44.10
2019-04-20T09:41:49.003Z,44.30
2019-04-20T09:43:56.539Z,43.20
2019-04-20T09:46:26.312Z,41.90
2019-04-20T09:48:59.894Z,42.90
2019-04-20T09:51:43.740Z,42.80
2019-04-20T09:54:17.460Z,42.20
2019-04-20T09:56:41.909Z,45.20
2019-04-20T09:59:16.693Z,42.70
2019-04-20T10:01:36.738Z,44.10
2019-04-20T10:03:57.078Z,42.20
2019-04-20T10:06:30.020Z,44.80
2019-04-20T10:09:00.077Z,44.30
2019-04-20T10:11:27.597Z,41.50
2019-04-20T10:13:56.489Z,42.20
2019-04-20T10:16:26.015Z,43.20
2019-04-20T10:18:55.296Z,42.90
2019-04-20T10:21:25.646Z,42.80
2019-04-20T10:23:54.592Z,42.80
2019-04-20T10:26:23.170Z,40.30
2019-04-20T10:28:51.938Z,40.20
2019-04-20T10:31:20.486Z,41.50
2019-04-20T10:33:49.347Z,41.50
2019-04-20T10:36:25.775Z,40.20
2019-04-20T10:38:54.816Z,39.80
2019-04-20T10:41:35.985Z,40.30
2019-04-20T10:43:53.637Z,38.30
2019-04-20T10:46:22.691Z,39.20
2019-04-20T10:48:53.320Z,39.10
2019-04-20T10:51:21.823Z,41.20
2019-04-20T10:53:50.629Z,38.30
2019-04-20T10:56:21.337Z,38.30
2019-04-20T10:58:50.071Z,39.10
2019-04-20T11:01:19.948Z,40.10
2019-04-20T11:03:48.535Z,40.00
2019-04-20T11:06:18.557Z,39.70
2019-04-20T11:08:47.160Z,39.60
2019-04-20T11:11:23.167Z,39.00
2019-04-20T11:13:46.111Z,38.10
2019-04-20T11:16:14.803Z,38.10
2019-04-20T11:18:43.526Z,38.10
2019-04-20T11:21:13.341Z,36.60
2019-04-20T11:23:42.482Z,38.90
2019-04-20T11:26:11.491Z,36.50
2019-04-20T11:28:40.057Z,38.30
2019-04-20T11:31:08.579Z,36.10
2019-04-20T11:33:38.285Z,36.60
2019-04-20T11:36:07.442Z,36.50
2019-04-20T11:38:36.084Z,38.30
2019-04-20T11:41:13.525Z,37.10
2019-04-20T11:43:37.696Z,37.10
2019-04-20T11:46:06.922Z,35.70
2019-04-20T11:48:35.611Z,35.70
2019-04-20T11:51:05.447Z,34.20
2019-04-20T11:53:34.243Z,35.60
2019-04-20T11:56:06.716Z,34.50
2019-04-20T11:58:33.317Z,35.00
2019-04-20T12:01:14.218Z,32.10
2019-04-20T12:03:50.630Z,32.00
2019-04-20T12:06:10.567Z,30.30
2019-04-20T12:11:22.729Z,29.50
2019-04-20T12:13:40.593Z,29.20
2019-04-20T12:16:09.843Z,27.70
2019-04-20T12:18:38.425Z,27.40
2019-04-20T12:21:06.965Z,26.60
2019-04-20T12:23:36.226Z,25.90
2019-04-20T12:26:05.170Z,25.40
2019-04-20T12:28:33.732Z,24.80
2019-04-20T12:31:10.011Z,24.90
2019-04-20T12:33:32.679Z,25.50
2019-04-20T12:36:02.545Z,25.70
2019-04-20T12:38:31.216Z,24.90
2019-04-20T12:41:04.008Z,24.20
2019-04-20T12:43:31.771Z,24.60
2019-04-20T12:46:02.083Z,24.10
2019-04-20T12:48:31.491Z,24.10
2019-04-20T12:51:01.522Z,23.60
2019-04-20T12:53:30.737Z,22.60
2019-04-20T12:55:59.574Z,22.20
2019-04-20T12:58:28.503Z,21.80
2019-04-20T13:00:58.252Z,21.00
2019-04-20T13:03:27.666Z,21.20
2019-04-20T13:05:56.620Z,21.00
2019-04-20T13:08:31.836Z,20.30
2019-04-20T13:10:58.356Z,21.50
2019-04-20T13:13:34.581Z,20.60
2019-04-20T13:16:04.860Z,19.80
2019-04-20T13:18:35.079Z,19.20
2019-04-20T13:21:05.082Z,19.50
2019-04-20T13:23:33.630Z,19.80
2019-04-20T13:26:02.684Z,19.10
2019-04-20T13:28:32.825Z,18.30
2019-04-20T13:31:01.914Z,18.30
2019-04-20T13:33:31.476Z,19.10
2019-04-20T13:36:00.136Z,19.00
2019-04-20T13:38:30.178Z,18.00
2019-04-20T13:40:59.854Z,18.30
2019-04-20T13:43:29.739Z,18.70
2019-04-20T13:45:58.667Z,19.10
2019-04-20T13:48:27.281Z,19.00
2019-04-20T13:50:56.118Z,18.20
2019-04-20T13:53:25.341Z,18.60
2019-04-20T13:55:54.144Z,18.40
2019-04-20T13:58:27.688Z,18.40
2019-04-20T14:01:05.130Z,18.40
2019-04-20T14:03:34.809Z,18.80
2019-04-20T14:06:04.609Z,18.70
2019-04-20T14:08:35.632Z,18.50
2019-04-20T14:11:05.250Z,18.70
2019-04-20T14:13:38.970Z,18.40
2019-04-20T14:16:05.108Z,17.80
2019-04-20T14:18:33.691Z,18.10
2019-04-20T14:21:02.581Z,18.20
2019-04-20T14:23:31.088Z,19.00
2019-04-20T14:26:00.789Z,18.40
2019-04-20T14:28:29.304Z,18.50
2019-04-20T14:30:58.191Z,18.50
2019-04-20T14:33:26.727Z,17.60
2019-04-20T14:35:55.272Z,17.40
2019-04-20T14:38:24.284Z,17.50
2019-04-20T14:40:52.902Z,16.60
2019-04-20T14:43:22.405Z,16.90
2019-04-20T14:45:50.977Z,16.90
2019-04-20T14:48:20.654Z,17.20
2019-04-20T14:50:49.758Z,17.20
2019-04-20T14:53:18.264Z,17.30
2019-04-20T14:55:47.191Z,17.40
2019-04-20T14:58:37.576Z,17.00
2019-04-20T15:01:06.761Z,17.00
2019-04-20T15:03:38.726Z,17.20
2019-04-20T15:06:07.545Z,16.50
2019-04-20T15:08:36.886Z,15.70
2019-04-20T15:11:07.186Z,16.10
2019-04-20T15:13:36.376Z,15.80
2019-04-20T15:16:06.549Z,16.10
2019-04-20T15:18:40.068Z,16.40
2019-04-20T15:21:13.437Z,16.20
2019-04-20T15:23:43.630Z,15.60
2019-04-20T15:26:13.080Z,15.70
2019-04-20T15:28:42.132Z,16.00
2019-04-20T15:31:12.165Z,15.10
2019-04-20T15:33:41.131Z,16.20
2019-04-20T15:36:10.530Z,15.80
2019-04-20T15:38:39.131Z,15.30
2019-04-20T15:41:10.167Z,15.50
2019-04-20T15:43:39.157Z,15.80
2019-04-20T15:46:09.517Z,16.40
2019-04-20T15:48:39.747Z,16.20
2019-04-20T15:51:09.830Z,15.10
2019-04-20T15:53:39.782Z,15.10
2019-04-20T15:56:11.265Z,15.30
2019-04-20T15:58:38.759Z,15.90
2019-04-20T16:01:08.247Z,15.70
2019-04-20T16:03:57.323Z,15.10
2019-04-20T16:06:27.243Z,14.40
2019-04-20T16:08:57.516Z,14.60
2019-04-20T16:11:26.632Z,14.30
2019-04-20T16:13:56.266Z,14.20
2019-04-20T16:16:25.814Z,14.20
2019-04-20T16:18:55.026Z,14.00
2019-04-20T16:21:27.640Z,14.10
2019-04-20T16:23:56.814Z,13.90
2019-04-20T16:26:29.813Z,14.00
2019-04-20T16:28:59.603Z,14.10
2019-04-20T16:31:28.830Z,13.80
2019-04-20T16:33:58.757Z,13.70
2019-04-20T16:36:28.455Z,14.10
2019-04-20T16:38:57.495Z,14.00
2019-04-20T16:41:26.455Z,14.00
2019-04-20T16:43:55.412Z,14.30
2019-04-20T16:46:25.703Z,13.80
2019-04-20T16:48:55.029Z,14.40
2019-04-20T16:51:24.977Z,14.10
2019-04-20T16:53:53.998Z,14.10
2019-04-20T16:56:22.620Z,13.80
2019-04-20T16:58:57.273Z,14.10
2019-04-20T17:01:21.652Z,13.80
2019-04-20T17:03:59.241Z,13.70
2019-04-20T17:06:20.775Z,14.00
2019-04-20T17:08:49.635Z,14.20
2019-04-20T17:11:18.264Z,14.20
2019-04-20T17:13:50.064Z,14.20
2019-04-20T17:16:17.549Z,14.40
2019-04-20T17:18:49.947Z,14.60
2019-04-20T17:21:23.154Z,14.40
2019-04-20T17:23:49.180Z,15.30
2019-04-20T17:26:37.299Z,14.90
2019-04-20T17:29:13.769Z,15.10
2019-04-20T17:31:45.200Z,15.20
2019-04-20T17:34:29.997Z,15.50
2019-04-20T17:36:44.616Z,15.80
2019-04-20T17:39:25.218Z,15.60
2019-04-20T17:42:00.578Z,15.90
2019-04-20T17:44:28.638Z,16.40
2019-04-20T17:46:54.295Z,16.60
2019-04-20T17:49:30.619Z,16.90
2019-04-20T17:52:05.097Z,17.50
2019-04-20T17:54:19.881Z,18.20
2019-04-20T17:56:48.745Z,18.70
2019-04-20T17:59:17.257Z,19.40
2019-04-20T18:02:17.850Z,20.10
2019-04-20T18:05:14.204Z,20.50
2019-04-20T18:07:40.754Z,20.90
2019-04-20T18:10:11.377Z,21.40
2019-04-20T18:12:29.403Z,21.40
2019-04-20T18:15:08.164Z,22.20
2019-04-20T18:17:40.589Z,22.40
2019-04-20T18:20:00.922Z,22.70
2019-04-20T18:22:29.948Z,22.90
2019-04-20T18:25:22.485Z,23.40
2019-04-20T18:27:45.973Z,23.30
2019-04-20T18:30:16.023Z,23.60
2019-04-20T18:32:35.759Z,23.60
2019-04-20T18:35:22.491Z,24.00
2019-04-20T18:37:59.130Z,24.00
2019-04-20T18:40:28.918Z,24.30
2019-04-20T18:43:02.822Z,24.40
2019-04-20T18:45:33.797Z,24.30
2019-04-20T18:48:11.690Z,24.50
2019-04-20T18:50:30.577Z,24.80
2019-04-20T18:52:53.949Z,25.20
2019-04-20T18:55:33.223Z,25.00
2019-04-20T18:57:53.067Z,24.90
2019-04-20T19:00:29.737Z,25.20
2019-04-20T19:02:56.093Z,25.80
2019-04-20T19:05:24.409Z,26.00
2019-04-20T19:08:00.038Z,25.90
2019-04-20T19:10:28.779Z,26.10
2019-04-20T19:12:59.915Z,26.40
2019-04-20T19:15:43.924Z,26.40
2019-04-20T19:18:09.808Z,26.60
2019-04-20T19:20:30.787Z,26.60
2019-04-20T19:23:00.051Z,26.50
2019-04-20T19:25:33.123Z,26.80
2019-04-20T19:28:01.443Z,26.70
2019-04-20T19:30:37.368Z,27.20
2019-04-20T19:33:15.041Z,27.20
2019-04-20T19:35:41.590Z,27.10
2019-04-20T19:38:09.822Z,27.30
2019-04-20T19:40:42.963Z,27.70
2019-04-20T19:43:14.862Z,27.90
2019-04-20T19:46:00.092Z,28.20
2019-04-20T19:48:18.939Z,28.30
2019-04-20T19:50:57.715Z,28.30
2019-04-20T19:53:26.418Z,28.50
2019-04-20T19:55:49.095Z,28.40
2019-04-20T19:58:16.218Z,28.50
2019-04-20T20:00:49.096Z,28.40
2019-04-20T20:03:15.708Z,28.50
2019-04-20T20:05:47.969Z,29.40
2019-04-20T20:08:19.694Z,29.20
2019-04-20T20:10:45.862Z,29.60
2019-04-20T20:13:14.972Z,29.70
2019-04-20T20:15:45.121Z,29.30
2019-04-20T20:18:31.006Z,29.50
2019-04-20T20:21:04.005Z,29.90
2019-04-20T20:23:14.531Z,30.10
2019-04-20T20:25:46.446Z,29.90
2019-04-20T20:28:25.855Z,29.90
2019-04-20T20:30:57.013Z,29.90
2019-04-20T20:33:32.627Z,30.70
2019-04-20T20:35:53.720Z,31.30
2019-04-20T20:38:22.794Z,31.70
2019-04-20T20:40:55.069Z,31.20
2019-04-20T20:43:23.110Z,31.20
2019-04-20T20:46:01.340Z,31.30
2019-04-20T20:48:32.505Z,31.20
2019-04-20T20:51:05.238Z,30.90
2019-04-20T20:53:27.228Z,31.90
2019-04-20T20:55:53.285Z,31.30
2019-04-20T20:58:32.511Z,32.00
2019-04-20T21:00:58.529Z,32.30
2019-04-20T21:03:24.739Z,32.80
2019-04-20T21:05:51.471Z,32.90
2019-04-20T21:08:21.638Z,33.40
2019-04-20T21:10:51.061Z,32.80
2019-04-20T21:13:21.409Z,31.80
2019-04-20T21:15:54.143Z,31.60
2019-04-20T21:18:37.767Z,31.50
2019-04-20T21:21:10.256Z,31.60
2019-04-20T21:23:35.358Z,31.90
2019-04-20T21:26:16.997Z,31.80
2019-04-20T21:28:42.047Z,31.70
2019-04-20T21:31:16.235Z,32.60
2019-04-20T21:33:42.901Z,32.00
2019-04-20T21:36:13.553Z,32.80
2019-04-20T21:38:44.309Z,32.30
2019-04-20T21:41:16.531Z,33.80
2019-04-20T21:43:44.644Z,33.30
2019-04-20T21:46:14.048Z,33.80
2019-04-20T21:48:57.081Z,35.80
2019-04-20T21:51:25.765Z,34.60
2019-04-20T21:53:44.295Z,35.20
2019-04-20T21:56:13.024Z,36.90
2019-04-20T21:58:48.250Z,36.70
2019-04-20T22:01:22.254Z,36.70
2019-04-20T22:03:44.788Z,35.40
2019-04-20T22:06:14.036Z,35.60
2019-04-20T22:08:49.782Z,35.20
2019-04-20T22:11:13.607Z,34.90
2019-04-20T22:13:44.598Z,36.00
2019-04-20T22:16:14.618Z,36.10
2019-04-20T22:18:51.851Z,36.20
2019-04-20T22:21:24.858Z,36.50
2019-04-20T22:24:02.145Z,36.30
2019-04-20T22:26:26.833Z,37.30
2019-04-20T22:28:44.647Z,37.80
2019-04-20T22:31:14.062Z,37.90
2019-04-20T22:33:44.932Z,38.30
2019-04-20T22:36:14.531Z,39.60
2019-04-20T22:38:58.100Z,40.40
2019-04-20T22:41:27.681Z,42.00
2019-04-20T22:43:55.127Z,43.60
2019-04-20T22:46:31.115Z,44.90
2019-04-20T22:49:14.349Z,44.90
2019-04-20T22:51:39.967Z,45.30
2019-04-20T22:54:14.899Z,45.10
2019-04-20T22:56:42.047Z,45.10
2019-04-20T22:59:02.168Z,44.50
2019-04-20T23:01:35.083Z,44.10
2019-04-20T23:03:56.855Z,44.20
2019-04-20T23:06:33.414Z,44.00
2019-04-20T23:09:03.163Z,44.00
2019-04-20T23:11:30.646Z,44.00
2019-04-20T23:13:58.205Z,44.40
2019-04-20T23:16:34.091Z,44.80
2019-04-20T23:18:58.158Z,44.80
2019-04-20T23:21:27.969Z,44.20
2019-04-20T23:24:00.392Z,43.70
2019-04-20T23:26:33.501Z,44.20
2019-04-20T23:29:00.447Z,44.30
2019-04-20T23:31:28.761Z,44.40
2019-04-20T23:34:01.368Z,44.10
2019-04-20T23:36:35.385Z,44.70
2019-04-20T23:39:01.225Z,45.60
2019-04-20T23:41:28.064Z,45.80
2019-04-20T23:44:04.566Z,46.30
2019-04-20T23:46:31.525Z,46.50
2019-04-20T23:49:24.029Z,46.90
2019-04-20T23:52:09.968Z,46.60
2019-04-20T23:54:25.178Z,46.60
2019-04-20T23:56:49.975Z,46.80
2019-04-20T23:59:24.627Z,47.30
